createdAt,value
2022-11-21T00:01:42.419Z,98829.16
2022-11-21T00:04:12.958Z,98829.16
2022-11-21T00:06:51.652Z,98829.13
2022-11-21T00:09:21.080Z,98826.56
2022-11-21T00:11:53.963Z,98822.25
2022-11-21T00:14:24.706Z,98830.88
2022-11-21T00:16:57.623Z,98837.78
2022-11-21T00:19:26.681Z,98831.72
2022-11-21T00:21:58.089Z,98828.28
2022-11-21T00:24:30.158Z,98823.97
2022-11-21T00:27:02.040Z,98819.66
2022-11-21T00:29:35.490Z,98813.63
2022-11-21T00:32:06.200Z,98811.91
2022-11-21T00:34:40.097Z,98805.03
2022-11-21T00:37:18.047Z,98804.16
2022-11-21T00:39:47.366Z,98797.25
2022-11-21T00:42:16.490Z,98804.16
2022-11-21T00:44:50.170Z,98806.72
2022-11-21T00:47:20.087Z,98809.34
2022-11-21T00:49:47.466Z,98810.19
2022-11-21T00:52:14.977Z,98806.75
2022-11-21T00:54:42.346Z,98805.84
2022-11-21T00:57:10.748Z,98792.03
2022-11-21T00:59:38.258Z,98797.19
2022-11-21T01:02:07.899Z,98798.13
2022-11-21T01:04:36.099Z,98798.97
2022-11-21T01:07:03.354Z,98795.53
2022-11-21T01:09:30.657Z,98791.19
2022-11-21T01:11:57.857Z,98788.56
2022-11-21T01:14:25.531Z,98781.69
2022-11-21T01:17:00.109Z,98774.78
2022-11-21T01:19:27.697Z,98771.31
2022-11-21T01:21:55.181Z,98767.91
2022-11-21T01:24:23.537Z,98768.78
2022-11-21T01:26:51.458Z,98765.34
2022-11-21T01:29:19.177Z,98758.44
2022-11-21T01:31:46.546Z,98753.31
2022-11-21T01:34:15.417Z,98748.13
2022-11-21T01:36:43.058Z,98742.09
2022-11-21T01:39:12.059Z,98759.34
2022-11-21T01:41:42.026Z,98760.22
2022-11-21T01:44:27.076Z,98759.34
2022-11-21T01:46:54.858Z,98756.72
2022-11-21T01:49:29.817Z,98748.13
2022-11-21T01:52:07.058Z,98747.28
2022-11-21T01:54:42.417Z,98745.56
2022-11-21T01:57:34.697Z,98752.44
2022-11-21T02:00:16.619Z,98750.69
2022-11-21T02:03:06.376Z,98729.16
2022-11-21T02:05:36.417Z,98741.22
2022-11-21T02:08:12.018Z,98739.53
2022-11-21T02:10:46.338Z,98729.19
2022-11-21T02:13:13.986Z,98713.66
2022-11-21T02:15:42.268Z,98717.13
2022-11-21T02:18:12.820Z,98711.91
2022-11-21T02:20:45.498Z,98711.84
2022-11-21T02:23:46.385Z,98697.19
2022-11-21T02:26:15.659Z,98702.34
2022-11-21T02:28:43.418Z,98703.22
2022-11-21T02:31:11.100Z,98698.94
2022-11-21T02:33:38.422Z,98690.28
2022-11-21T02:36:32.626Z,98697.25
2022-11-21T02:39:00.185Z,98688.59
2022-11-21T02:41:30.221Z,98692.91
2022-11-21T02:44:08.859Z,98686.88
2022-11-21T02:46:36.542Z,98666.97
2022-11-21T02:49:07.617Z,98667.81
2022-11-21T02:51:36.261Z,98669.56
2022-11-21T02:54:03.830Z,98663.56
2022-11-21T02:56:31.179Z,98661.69
2022-11-21T02:58:59.138Z,98650.44
2022-11-21T03:01:27.733Z,98649.59
2022-11-21T03:03:54.986Z,98625.44
2022-11-21T03:06:22.536Z,98626.34
2022-11-21T03:08:49.945Z,98637.47
2022-11-21T03:11:17.417Z,98634.03
2022-11-21T03:13:45.898Z,98623.59
2022-11-21T03:16:14.378Z,98608.97
2022-11-21T03:18:43.818Z,98621.94
2022-11-21T03:21:11.339Z,98610.69
2022-11-21T03:23:38.897Z,98601.19
2022-11-21T03:26:06.225Z,98602.88
2022-11-21T03:28:33.677Z,98603.56
2022-11-21T03:31:01.258Z,98613.97
2022-11-21T03:33:28.651Z,98611.44
2022-11-21T03:35:56.046Z,98603.59
2022-11-21T03:38:23.599Z,98596.69
2022-11-21T03:40:58.280Z,98585.56
2022-11-21T03:43:25.641Z,98597.56
2022-11-21T03:45:53.042Z,98593.25
2022-11-21T03:48:20.596Z,98585.53
2022-11-21T03:50:48.998Z,98581.09
2022-11-21T03:53:16.478Z,98575.06
2022-11-21T03:55:43.886Z,98572.47
2022-11-21T03:58:11.326Z,98557.75
2022-11-21T04:00:39.891Z,98561.34
2022-11-21T04:03:07.359Z,98559.72
2022-11-21T04:05:36.838Z,98547.69
2022-11-21T04:08:08.238Z,98540.81
2022-11-21T04:10:38.477Z,98538.16
2022-11-21T04:13:09.806Z,98536.47
2022-11-21T04:15:39.717Z,98542.53
2022-11-21T04:18:12.319Z,98538.28
2022-11-21T04:20:43.757Z,98527.03
2022-11-21T04:23:14.611Z,98524.50
2022-11-21T04:25:45.637Z,98531.16
2022-11-21T04:28:16.357Z,98532.88
2022-11-21T04:30:45.518Z,98537.22
2022-11-21T04:33:19.725Z,98537.13
2022-11-21T04:35:49.597Z,98540.63
2022-11-21T04:38:17.798Z,98534.56
2022-11-21T04:40:45.760Z,98528.56
2022-11-21T04:43:13.277Z,98523.47
2022-11-21T04:45:46.839Z,98524.34
2022-11-21T04:48:14.358Z,98525.16
2022-11-21T04:50:41.774Z,98521.75
2022-11-21T04:53:09.160Z,98513.94
2022-11-21T04:55:36.677Z,98509.59
2022-11-21T04:58:04.326Z,98507.84
2022-11-21T05:00:31.568Z,98490.50
2022-11-21T05:03:07.519Z,98499.06
2022-11-21T05:05:34.638Z,98485.25
2022-11-21T05:08:02.117Z,98491.44
2022-11-21T05:10:30.717Z,98473.38
2022-11-21T05:13:19.529Z,98467.97
2022-11-21T05:15:47.965Z,98466.16
2022-11-21T05:18:15.556Z,98468.75
2022-11-21T05:20:42.919Z,98460.97
2022-11-21T05:23:10.039Z,98464.22
2022-11-21T05:25:38.319Z,98460.63
2022-11-21T05:28:06.050Z,98473.56
2022-11-21T05:30:34.437Z,98470.16
2022-11-21T05:33:04.238Z,98469.88
2022-11-21T05:35:33.608Z,98457.78
2022-11-21T05:38:03.158Z,98457.56
2022-11-21T05:40:31.367Z,98453.25
2022-11-21T05:43:20.558Z,98449.81
2022-11-21T05:45:52.380Z,98449.75
2022-11-21T05:48:25.693Z,98447.03
2022-11-21T05:50:58.605Z,98437.47
2022-11-21T05:53:29.406Z,98431.44
2022-11-21T05:56:10.178Z,98429.63
2022-11-21T05:58:41.959Z,98421.06
2022-11-21T06:01:12.846Z,98428.78
2022-11-21T06:03:44.626Z,98421.00
2022-11-21T06:06:20.857Z,98427.09
2022-11-21T06:08:52.786Z,98424.38
2022-11-21T06:11:22.067Z,98420.75
2022-11-21T06:13:49.379Z,98418.19
2022-11-21T06:16:18.659Z,98415.41
2022-11-21T06:18:56.696Z,98416.28
2022-11-21T06:21:28.509Z,98417.94
2022-11-21T06:23:57.387Z,98427.47
2022-11-21T06:26:26.298Z,98424.88
2022-11-21T06:28:55.185Z,98421.44
2022-11-21T06:31:24.818Z,98424.75
2022-11-21T06:33:57.426Z,98420.31
2022-11-21T06:36:25.021Z,98419.38
2022-11-21T06:38:54.741Z,98405.31
2022-11-21T06:41:27.339Z,98422.53
2022-11-21T06:43:54.625Z,98425.94
2022-11-21T06:46:22.100Z,98429.25
2022-11-21T06:48:49.666Z,98425.72
2022-11-21T06:51:21.938Z,98425.50
2022-11-21T06:54:01.498Z,98429.75
2022-11-21T06:56:31.659Z,98414.03
2022-11-21T06:59:00.220Z,98413.97
2022-11-21T07:01:36.719Z,98421.63
2022-11-21T07:04:04.067Z,98412.22
2022-11-21T07:06:31.461Z,98411.19
2022-11-21T07:09:31.460Z,98416.34
2022-11-21T07:11:46.180Z,98423.94
2022-11-21T07:14:18.306Z,98423.00
2022-11-21T07:16:45.417Z,98416.13
2022-11-21T07:19:12.899Z,98424.66
2022-11-21T07:21:41.028Z,98419.44
2022-11-21T07:24:08.346Z,98412.41
2022-11-21T07:26:35.699Z,98417.44
2022-11-21T07:29:03.270Z,98403.47
2022-11-21T07:31:30.578Z,98400.78
2022-11-21T07:33:58.098Z,98400.63
2022-11-21T07:36:25.578Z,98399.72
2022-11-21T07:38:52.945Z,98397.78
2022-11-21T07:41:21.459Z,98393.31
2022-11-21T07:43:48.980Z,98397.47
2022-11-21T07:46:16.347Z,98388.69
2022-11-21T07:48:43.866Z,98384.28
2022-11-21T07:51:12.299Z,98381.50
2022-11-21T07:53:40.859Z,98389.97
2022-11-21T07:56:10.058Z,98389.81
2022-11-21T07:58:37.339Z,98385.34
2022-11-21T08:01:08.108Z,98390.34
2022-11-21T08:03:37.419Z,98389.38
2022-11-21T08:06:06.939Z,98381.38
2022-11-21T08:08:35.301Z,98394.44
2022-11-21T08:11:07.619Z,98390.84
2022-11-21T08:13:40.938Z,98378.59
2022-11-21T08:16:08.387Z,98369.69
2022-11-21T08:18:36.835Z,98373.00
2022-11-21T08:21:05.300Z,98378.03
2022-11-21T08:23:33.138Z,98382.19
2022-11-21T08:26:00.343Z,98381.13
2022-11-21T08:28:28.146Z,98382.47
2022-11-21T08:30:55.701Z,98392.81
2022-11-21T08:33:23.239Z,98397.81
2022-11-21T08:35:50.619Z,98392.53
2022-11-21T08:38:19.739Z,98390.75
2022-11-21T08:40:47.101Z,98385.53
2022-11-21T08:43:15.549Z,98381.19
2022-11-21T08:45:42.991Z,98379.19
2022-11-21T08:48:12.922Z,98385.06
2022-11-21T08:50:40.067Z,98391.19
2022-11-21T08:53:08.189Z,98386.81
2022-11-21T08:55:35.388Z,98393.66
2022-11-21T08:58:02.430Z,98387.44
2022-11-21T09:00:29.865Z,98383.09
2022-11-21T09:02:57.218Z,98380.41
2022-11-21T09:05:24.943Z,98379.47
2022-11-21T09:07:59.068Z,98377.53
2022-11-21T09:10:31.341Z,98380.72
2022-11-21T09:13:00.227Z,98374.44
2022-11-21T09:15:48.057Z,98381.28
2022-11-21T09:18:15.420Z,98374.34
2022-11-21T09:20:45.021Z,98379.34
2022-11-21T09:23:15.550Z,98387.06
2022-11-21T09:25:43.382Z,98375.59
2022-11-21T09:28:12.990Z,98373.63
2022-11-21T09:30:41.629Z,98366.69
2022-11-21T09:33:14.984Z,98367.31
2022-11-21T09:35:42.379Z,98362.75
2022-11-21T09:38:11.058Z,98360.91
2022-11-21T09:40:45.258Z,98362.28
2022-11-21T09:43:28.299Z,98363.06
2022-11-21T09:46:03.380Z,98356.53
2022-11-21T09:48:44.067Z,98357.06
2022-11-21T09:51:15.347Z,98352.84
2022-11-21T09:54:01.111Z,98356.03
2022-11-21T09:56:32.500Z,98362.97
2022-11-21T09:59:26.119Z,98362.75
2022-11-21T10:01:53.342Z,98371.28
2022-11-21T10:04:20.759Z,98366.75
2022-11-21T10:07:06.128Z,98359.72
2022-11-21T10:09:36.458Z,98362.00
2022-11-21T10:12:32.738Z,98358.72
2022-11-21T10:15:29.768Z,98356.56
2022-11-21T10:18:11.285Z,98365.28
2022-11-21T10:20:44.679Z,98358.00
2022-11-21T10:23:14.805Z,98359.50
2022-11-21T10:26:05.597Z,98360.88
2022-11-21T10:28:50.979Z,98363.31
2022-11-21T10:31:21.635Z,98362.03
2022-11-21T10:33:54.373Z,98370.53
2022-11-21T10:36:34.040Z,98372.03
2022-11-21T10:39:42.261Z,98366.78
2022-11-21T10:42:35.565Z,98368.22
2022-11-21T10:45:19.770Z,98357.50
2022-11-21T10:47:51.648Z,98364.84
2022-11-21T10:50:37.722Z,98355.75
2022-11-21T10:53:40.418Z,98355.81
2022-11-21T10:56:24.259Z,98357.34
2022-11-21T10:58:54.086Z,98352.13
2022-11-21T11:01:33.287Z,98354.59
2022-11-21T11:04:28.568Z,98365.28
2022-11-21T11:07:00.588Z,98364.56
2022-11-21T11:09:33.161Z,98354.72
2022-11-21T11:12:51.245Z,98363.88
2022-11-21T11:15:25.087Z,98360.06
2022-11-21T11:18:09.161Z,98369.50
2022-11-21T11:20:43.103Z,98361.38
2022-11-21T11:23:25.423Z,98368.44
2022-11-21T11:26:00.969Z,98369.50
2022-11-21T11:28:36.621Z,98362.31
2022-11-21T11:31:04.358Z,98362.78
2022-11-21T11:33:50.024Z,98370.44
2022-11-21T11:36:39.857Z,98369.59
2022-11-21T11:39:19.083Z,98368.34
2022-11-21T11:42:05.066Z,98367.69
2022-11-21T11:44:58.069Z,98372.13
2022-11-21T11:47:39.886Z,98364.47
2022-11-21T11:50:17.558Z,98363.50
2022-11-21T11:53:09.327Z,98362.44
2022-11-21T11:55:46.860Z,98357.13
2022-11-21T11:58:22.482Z,98350.78
2022-11-21T12:01:00.959Z,98350.28
2022-11-21T12:04:02.927Z,98348.19
2022-11-21T12:10:19.936Z,98353.66
2022-11-21T12:12:56.581Z,98359.91
2022-11-21T12:15:50.658Z,98363.13
2022-11-21T12:18:31.328Z,98360.13
2022-11-21T12:21:04.562Z,98359.41
2022-11-21T12:23:51.461Z,98359.13
2022-11-21T12:26:45.179Z,98368.06
2022-11-21T12:29:48.438Z,98363.41
2022-11-21T12:33:10.849Z,98364.25
2022-11-21T12:36:18.266Z,98366.22
2022-11-21T12:39:09.404Z,98363.78
2022-11-21T12:42:36.255Z,98362.63
2022-11-21T12:45:24.738Z,98364.38
2022-11-21T12:48:31.828Z,98368.22
2022-11-21T12:51:27.820Z,98369.56
2022-11-21T12:54:17.779Z,98368.50
2022-11-21T12:57:17.506Z,98371.47
2022-11-21T13:00:03.298Z,98374.72
2022-11-21T13:03:02.419Z,98374.94
2022-11-21T13:05:38.308Z,98382.69
2022-11-21T13:08:25.321Z,98383.44
2022-11-21T13:11:40.340Z,98377.28
2022-11-21T13:14:16.750Z,98376.63
2022-11-21T13:16:50.501Z,98381.47
2022-11-21T13:19:34.165Z,98390.28
2022-11-21T13:22:02.189Z,98397.59
2022-11-21T13:24:48.699Z,98391.59
2022-11-21T13:27:38.228Z,98397.75
2022-11-21T13:30:11.820Z,98399.84
2022-11-21T13:32:55.820Z,98394.16
2022-11-21T13:35:51.380Z,98401.28
2022-11-21T13:38:19.064Z,98399.59
2022-11-21T13:41:06.981Z,98398.75
2022-11-21T13:43:35.479Z,98402.06
2022-11-21T13:46:03.251Z,98403.59
2022-11-21T13:49:08.320Z,98409.97
2022-11-21T13:51:49.602Z,98403.25
2022-11-21T13:54:39.929Z,98405.72
2022-11-21T13:57:29.321Z,98404.59
2022-11-21T14:00:14.364Z,98409.34
2022-11-21T14:03:02.239Z,98400.34
2022-11-21T14:05:52.895Z,98399.47
2022-11-21T14:08:24.245Z,98406.94
2022-11-21T14:10:53.252Z,98411.38
2022-11-21T14:13:28.363Z,98415.06
2022-11-21T14:16:27.609Z,98425.72
2022-11-21T14:18:55.619Z,98423.56
2022-11-21T14:21:41.167Z,98417.50
2022-11-21T14:24:18.638Z,98416.16
2022-11-21T14:26:53.563Z,98416.72
2022-11-21T14:29:53.072Z,98431.22
2022-11-21T14:32:34.896Z,98427.38
2022-11-21T14:35:25.184Z,98417.00
2022-11-21T14:37:55.667Z,98421.03
2022-11-21T14:40:24.737Z,98426.00
2022-11-21T14:42:53.007Z,98424.00
2022-11-21T14:45:24.330Z,98427.13
2022-11-21T14:47:54.644Z,98424.41
2022-11-21T14:50:31.127Z,98438.72
2022-11-21T14:53:00.901Z,98440.31
2022-11-21T14:55:31.645Z,98442.38
2022-11-21T14:58:02.935Z,98446.00
2022-11-21T15:03:24.346Z,98445.19
2022-11-21T15:06:08.168Z,98440.63
2022-11-21T15:09:33.368Z,98446.50
2022-11-21T15:11:54.449Z,98445.81
2022-11-21T15:14:44.376Z,98448.75
2022-11-21T15:17:17.249Z,98454.13
2022-11-21T15:19:47.289Z,98457.94
2022-11-21T15:22:38.609Z,98454.00
2022-11-21T15:25:18.452Z,98452.53
2022-11-21T15:27:48.330Z,98464.91
2022-11-21T15:30:16.372Z,98457.97
2022-11-21T15:33:03.928Z,98469.31
2022-11-21T15:35:55.011Z,98474.31
2022-11-21T15:38:57.700Z,98474.31
2022-11-21T15:41:38.332Z,98480.91
2022-11-21T15:44:07.500Z,98484.91
2022-11-21T15:46:38.431Z,98495.53
2022-11-21T15:49:31.370Z,98500.88
2022-11-21T15:52:12.568Z,98508.53
2022-11-21T15:54:40.501Z,98508.69
2022-11-21T15:57:10.465Z,98498.63
2022-11-21T15:59:38.530Z,98508.56
2022-11-21T16:02:14.572Z,98501.00
2022-11-21T16:04:45.106Z,98512.91
2022-11-21T16:07:14.597Z,98518.16
2022-11-21T16:09:52.001Z,98513.78
2022-11-21T16:12:21.494Z,98523.59
2022-11-21T16:14:50.408Z,98516.84
2022-11-21T16:17:18.887Z,98521.84
2022-11-21T16:19:47.327Z,98529.00
2022-11-21T16:22:17.279Z,98523.38
2022-11-21T16:24:45.283Z,98529.72
2022-11-21T16:27:12.967Z,98537.59
2022-11-21T16:29:40.616Z,98535.91
2022-11-21T16:32:08.199Z,98529.78
2022-11-21T16:34:42.008Z,98532.81
2022-11-21T16:37:10.861Z,98533.63
2022-11-21T16:39:38.763Z,98532.59
2022-11-21T16:42:10.768Z,98532.50
2022-11-21T16:44:37.965Z,98541.13
2022-11-21T16:47:08.602Z,98531.63
2022-11-21T16:49:44.239Z,98539.50
2022-11-21T16:52:14.328Z,98535.41
2022-11-21T16:54:41.719Z,98532.72
2022-11-21T16:57:10.731Z,98532.00
2022-11-21T16:59:38.248Z,98538.00
2022-11-21T17:02:06.925Z,98545.09
2022-11-21T17:04:35.448Z,98529.41
2022-11-21T17:07:03.234Z,98545.13
2022-11-21T17:09:30.718Z,98543.88
2022-11-21T17:11:58.999Z,98546.47
2022-11-21T17:14:27.388Z,98546.28
2022-11-21T17:16:55.319Z,98545.50
2022-11-21T17:19:23.920Z,98546.34
2022-11-21T17:21:53.043Z,98540.53
2022-11-21T17:24:21.966Z,98549.44
2022-11-21T17:26:50.178Z,98547.53
2022-11-21T17:29:18.685Z,98539.63
2022-11-21T17:31:50.373Z,98550.81
2022-11-21T17:34:18.622Z,98555.50
2022-11-21T17:36:46.808Z,98543.59
2022-11-21T17:39:15.450Z,98544.84
2022-11-21T17:41:44.130Z,98541.13
2022-11-21T17:44:15.805Z,98538.53
2022-11-21T17:46:44.405Z,98546.34
2022-11-21T17:49:14.408Z,98555.28
2022-11-21T17:51:42.365Z,98546.78
2022-11-21T17:54:11.802Z,98551.25
2022-11-21T17:56:48.336Z,98554.94
2022-11-21T17:59:20.366Z,98554.19
2022-11-21T18:01:48.513Z,98554.31
2022-11-21T18:04:18.678Z,98552.06
2022-11-21T18:06:47.106Z,98555.78
2022-11-21T18:09:15.539Z,98568.16
2022-11-21T18:11:46.217Z,98571.22
2022-11-21T18:14:14.849Z,98573.56
2022-11-21T18:16:47.559Z,98565.53
2022-11-21T18:19:19.365Z,98551.66
2022-11-21T18:21:46.970Z,98557.66
2022-11-21T18:24:16.798Z,98555.03
2022-11-21T18:26:46.971Z,98548.97
2022-11-21T18:32:03.982Z,98553.75
2022-11-21T18:34:31.852Z,98554.59
2022-11-21T18:37:00.759Z,98563.81
2022-11-21T18:39:29.152Z,98564.75
2022-11-21T18:41:57.238Z,98567.09
2022-11-21T18:44:26.398Z,98570.41
2022-11-21T18:46:55.121Z,98573.06
2022-11-21T18:49:22.448Z,98578.53
2022-11-21T18:51:52.377Z,98566.63
2022-11-21T18:54:20.246Z,98572.50
2022-11-21T18:56:48.198Z,98577.91
2022-11-21T18:59:16.293Z,98574.00
2022-11-21T19:01:44.374Z,98583.88
2022-11-21T19:04:14.878Z,98581.78
2022-11-21T19:06:45.478Z,98578.72
2022-11-21T19:09:14.346Z,98576.19
2022-11-21T19:11:43.958Z,98574.38
2022-11-21T19:14:14.518Z,98586.63
2022-11-21T19:16:51.287Z,98595.28
2022-11-21T19:19:36.501Z,98585.78
2022-11-21T19:22:08.528Z,98579.19
2022-11-21T19:24:37.958Z,98581.72
2022-11-21T19:27:07.599Z,98574.81
2022-11-21T19:29:37.806Z,98579.78
2022-11-21T19:32:05.988Z,98574.63
2022-11-21T19:34:33.765Z,98564.38
2022-11-21T19:37:02.582Z,98569.66
2022-11-21T19:39:30.405Z,98564.44
2022-11-21T19:41:59.890Z,98576.38
2022-11-21T19:44:28.533Z,98579.03
2022-11-21T19:46:57.173Z,98574.88
2022-11-21T19:49:26.898Z,98581.03
2022-11-21T19:51:57.644Z,98585.63
2022-11-21T19:54:26.917Z,98581.34
2022-11-21T19:56:54.689Z,98587.38
2022-11-21T19:59:23.409Z,98581.59
2022-11-21T20:01:52.992Z,98580.53
2022-11-21T20:04:22.451Z,98587.47
2022-11-21T20:06:51.546Z,98583.00
2022-11-21T20:09:25.085Z,98575.91
2022-11-21T20:11:53.685Z,98575.00
2022-11-21T20:14:22.619Z,98581.03
2022-11-21T20:16:54.100Z,98580.09
2022-11-21T20:19:25.330Z,98591.31
2022-11-21T20:21:54.206Z,98586.09
2022-11-21T20:24:23.564Z,98594.84
2022-11-21T20:26:51.448Z,98593.41
2022-11-21T20:29:21.488Z,98597.78
2022-11-21T20:31:51.164Z,98594.00
2022-11-21T20:34:19.246Z,98594.38
2022-11-21T20:36:55.051Z,98586.69
2022-11-21T20:39:24.203Z,98586.66
2022-11-21T20:41:52.368Z,98597.19
2022-11-21T20:47:11.334Z,98588.31
2022-11-21T20:49:39.285Z,98598.69
2022-11-21T20:55:01.449Z,98608.81
2022-11-21T20:57:31.245Z,98606.97
2022-11-21T21:00:09.925Z,98602.47
2022-11-21T21:02:37.841Z,98604.13
2022-11-21T21:05:08.010Z,98610.19
2022-11-21T21:07:38.227Z,98612.63
2022-11-21T21:10:08.708Z,98614.47
2022-11-21T21:12:37.138Z,98608.47
2022-11-21T21:15:06.473Z,98603.25
2022-11-21T21:17:37.007Z,98607.41
2022-11-21T21:20:07.358Z,98603.25
2022-11-21T21:22:36.059Z,98599.78
2022-11-21T21:25:06.092Z,98598.72
2022-11-21T21:27:37.637Z,98604.69
2022-11-21T21:30:07.767Z,98603.09
2022-11-21T21:32:36.048Z,98597.06
2022-11-21T21:35:03.545Z,98585.88
2022-11-21T21:37:30.944Z,98603.91
2022-11-21T21:39:58.339Z,98606.56
2022-11-21T21:42:25.817Z,98600.66
2022-11-21T21:44:53.189Z,98598.22
2022-11-21T21:47:21.621Z,98582.78
2022-11-21T21:49:49.499Z,98586.19
2022-11-21T21:52:18.177Z,98572.25
2022-11-21T21:54:45.823Z,98563.47
2022-11-21T21:57:13.057Z,98559.16
2022-11-21T21:59:44.539Z,98557.31
2022-11-21T22:02:12.542Z,98540.09
2022-11-21T22:04:39.991Z,98544.16
2022-11-21T22:07:08.979Z,98528.63
2022-11-21T22:09:36.545Z,98532.00
2022-11-21T22:12:03.586Z,98523.34
2022-11-21T22:14:31.227Z,98528.63
2022-11-21T22:16:58.859Z,98521.75
2022-11-21T22:19:26.505Z,98525.13
2022-11-21T22:21:53.778Z,98516.28
2022-11-21T22:24:26.620Z,98523.28
2022-11-21T22:26:54.464Z,98513.03
2022-11-21T22:29:21.865Z,98509.47
2022-11-21T22:31:49.238Z,98504.28
2022-11-21T22:34:16.757Z,98503.56
2022-11-21T22:36:45.037Z,98518.22
2022-11-21T22:39:12.159Z,98517.28
2022-11-21T22:41:39.686Z,98511.38
2022-11-21T22:44:07.055Z,98506.38
2022-11-21T22:46:34.557Z,98506.16
2022-11-21T22:49:03.880Z,98500.88
2022-11-21T22:51:31.479Z,98499.34
2022-11-21T22:53:58.997Z,98509.69
2022-11-21T22:56:27.396Z,98512.56
2022-11-21T22:58:55.111Z,98511.69
2022-11-21T23:01:26.332Z,98521.19
2022-11-21T23:03:55.963Z,98515.03
2022-11-21T23:06:25.587Z,98521.41
2022-11-21T23:08:54.507Z,98515.28
2022-11-21T23:11:28.216Z,98524.72
2022-11-21T23:13:57.507Z,98520.47
2022-11-21T23:16:26.231Z,98519.56
2022-11-21T23:19:01.627Z,98521.09
2022-11-21T23:21:31.152Z,98515.09
2022-11-21T23:23:58.540Z,98516.84
2022-11-21T23:26:25.588Z,98525.44
2022-11-21T23:28:55.058Z,98525.44
2022-11-21T23:31:22.499Z,98513.34
2022-11-21T23:33:50.021Z,98504.72
2022-11-21T23:36:17.358Z,98510.81
2022-11-21T23:38:44.866Z,98510.88
2022-11-21T23:41:12.346Z,98509.97
2022-11-21T23:43:41.787Z,98510.97
2022-11-21T23:46:09.387Z,98505.81
2022-11-21T23:48:37.755Z,98515.31
2022-11-21T23:51:07.258Z,98516.34
2022-11-21T23:53:34.746Z,98510.06
2022-11-21T23:56:02.231Z,98523.28
2022-11-21T23:58:29.705Z,98526.84
